Terminal Aerodrome Forecast
Issued by NWS

Home | Current Version | Previous Version | Graphics & Text | Print | Product List | Glossary On
Versions: 1 2 3 4 5 6 7 8 9 10 11 12 13 14 15 16 17 18 19 20 21 22 23 24 25
000
FTUS42 KMHX 191734
TAFISO
TAF
KISO 191734Z 1918/2018 14010KT 4SM -SHRA OVC025
     FM192000 11012KT P6SM -SHRA SCT010 BKN020
      TEMPO 1920/1923 4SM SHRA BR BKN010
     FM200200 14012KT 4SM -SHRA BR OVC007
     FM201200 22008KT P6SM VCSH BKN010
     FM201500 23011KT P6SM SCT020
      AMD LTD TO CLD VIS AND WIND=

USA.gov is the U.S. government's official web portal to all federal, state and local government web resources and services.